createdAt,value
2023-02-04T00:00:27.985Z,50.30
2023-02-04T00:03:00.267Z,50.50
2023-02-04T00:05:32.318Z,52.40
2023-02-04T00:08:05.022Z,51.60
2023-02-04T00:10:38.995Z,48.20
2023-02-04T00:13:09.779Z,50.20
2023-02-04T00:15:40.511Z,50.20
2023-02-04T00:18:11.703Z,48.90
2023-02-04T00:20:43.372Z,49.40
2023-02-04T00:23:14.702Z,50.60
2023-02-04T00:25:45.496Z,50.10
2023-02-04T00:28:16.909Z,49.20
2023-02-04T00:30:49.477Z,49.80
2023-02-04T00:33:20.222Z,50.50
2023-02-04T00:35:52.258Z,51.90
2023-02-04T00:38:25.955Z,52.20
2023-02-04T00:40:56.644Z,52.10
2023-02-04T00:43:27.391Z,49.90
2023-02-04T00:45:58.223Z,49.80
2023-02-04T00:48:28.953Z,51.60
2023-02-04T00:50:59.696Z,50.30
2023-02-04T00:53:30.436Z,47.90
2023-02-04T00:56:01.133Z,49.60
2023-02-04T00:58:31.929Z,49.60
2023-02-04T01:01:02.813Z,49.30
2023-02-04T01:03:33.617Z,49.80
2023-02-04T01:06:04.310Z,49.70
2023-02-04T01:08:35.082Z,47.70
2023-02-04T01:11:06.742Z,47.30
2023-02-04T01:13:37.586Z,48.40
2023-02-04T01:16:08.535Z,50.60
2023-02-04T01:18:39.549Z,47.30
2023-02-04T01:21:11.545Z,47.40
2023-02-04T01:23:44.272Z,48.60
2023-02-04T01:26:14.588Z,49.00
2023-02-04T01:28:45.415Z,48.20
2023-02-04T01:31:17.283Z,48.60
2023-02-04T01:33:48.168Z,49.60
2023-02-04T01:36:23.776Z,50.40
2023-02-04T01:38:54.574Z,48.80
2023-02-04T01:41:25.322Z,48.50
2023-02-04T01:43:56.382Z,51.60
2023-02-04T01:46:27.210Z,50.00
2023-02-04T01:48:58.209Z,49.10
2023-02-04T01:51:34.272Z,48.80
2023-02-04T01:54:05.203Z,50.60
2023-02-04T01:56:36.215Z,50.00
2023-02-04T01:59:16.252Z,50.80
2023-02-04T02:01:51.161Z,50.40
2023-02-04T02:04:34.210Z,48.70
2023-02-04T02:07:08.495Z,50.60
2023-02-04T02:09:39.878Z,48.10
2023-02-04T02:12:11.012Z,48.70
2023-02-04T02:14:41.723Z,48.10
2023-02-04T02:17:12.465Z,48.00
2023-02-04T02:19:44.081Z,50.70
2023-02-04T02:22:39.984Z,50.90
2023-02-04T02:25:16.207Z,50.80
2023-02-04T02:27:47.460Z,52.60
2023-02-04T02:30:19.767Z,52.60
2023-02-04T02:32:54.239Z,53.10
2023-02-04T02:35:25.836Z,54.50
2023-02-04T02:37:57.792Z,55.70
2023-02-04T02:40:29.129Z,55.10
2023-02-04T02:43:00.226Z,55.90
2023-02-04T02:45:35.457Z,55.90
2023-02-04T02:48:05.973Z,55.70
2023-02-04T02:50:37.234Z,55.60
2023-02-04T02:53:12.886Z,56.40
2023-02-04T02:55:44.239Z,57.70
2023-02-04T02:58:29.722Z,57.50
2023-02-04T03:01:01.902Z,56.80
2023-02-04T03:03:39.173Z,58.00
2023-02-04T03:06:19.491Z,58.00
2023-02-04T03:08:54.891Z,57.20
2023-02-04T03:11:29.258Z,57.90
2023-02-04T03:14:05.645Z,57.50
2023-02-04T03:16:38.949Z,58.90
2023-02-04T03:19:11.808Z,57.90
2023-02-04T03:21:43.604Z,58.30
2023-02-04T03:24:14.609Z,59.80
2023-02-04T03:26:45.481Z,59.10
2023-02-04T03:29:16.827Z,59.20
2023-02-04T03:31:48.827Z,60.40
2023-02-04T03:34:19.819Z,59.40
2023-02-04T03:36:50.568Z,59.60
2023-02-04T03:39:21.275Z,57.80
2023-02-04T03:41:51.972Z,58.30
2023-02-04T03:44:24.000Z,58.80
2023-02-04T03:46:58.997Z,58.00
2023-02-04T03:49:30.592Z,58.30
2023-02-04T03:52:01.600Z,57.70
2023-02-04T03:54:32.621Z,57.60
2023-02-04T03:57:03.449Z,57.20
2023-02-04T03:59:34.250Z,56.70
2023-02-04T04:02:06.656Z,56.30
2023-02-04T04:04:58.062Z,57.90
2023-02-04T04:07:29.437Z,58.60
2023-02-04T04:10:00.303Z,58.70
2023-02-04T04:12:31.138Z,58.80
2023-02-04T04:15:02.556Z,58.90
2023-02-04T04:17:33.402Z,59.70
2023-02-04T04:20:04.469Z,59.90
2023-02-04T04:22:36.043Z,59.40
2023-02-04T04:25:06.852Z,59.80
2023-02-04T04:27:37.808Z,59.10
2023-02-04T04:30:10.594Z,59.20
2023-02-04T04:32:41.576Z,58.70
2023-02-04T04:35:11.974Z,59.50
2023-02-04T04:37:42.739Z,58.00
2023-02-04T04:40:15.643Z,58.50
2023-02-04T04:42:46.835Z,58.80
2023-02-04T04:45:18.135Z,57.20
2023-02-04T04:47:49.034Z,58.50
2023-02-04T04:50:20.202Z,58.10
2023-02-04T04:52:50.542Z,58.80
2023-02-04T04:55:22.121Z,57.80
2023-02-04T04:57:54.206Z,57.40
2023-02-04T05:00:25.193Z,57.90
2023-02-04T05:02:56.361Z,58.30
2023-02-04T05:05:28.443Z,58.30
2023-02-04T05:08:03.829Z,60.00
2023-02-04T05:10:34.258Z,59.90
2023-02-04T05:13:04.932Z,59.80
2023-02-04T05:15:35.299Z,59.90
2023-02-04T05:18:06.114Z,59.10
2023-02-04T05:20:36.450Z,58.10
2023-02-04T05:23:06.997Z,58.20
2023-02-04T05:25:37.329Z,60.20
2023-02-04T05:28:08.142Z,59.90
2023-02-04T05:30:38.602Z,60.20
2023-02-04T05:33:09.004Z,60.60
2023-02-04T05:35:39.358Z,59.80
2023-02-04T05:38:10.881Z,60.40
2023-02-04T05:40:41.203Z,61.30
2023-02-04T05:43:12.610Z,60.90
2023-02-04T05:45:43.000Z,61.20
2023-02-04T05:48:13.772Z,61.10
2023-02-04T05:50:44.080Z,61.10
2023-02-04T05:53:14.934Z,60.90
2023-02-04T05:55:45.293Z,61.80
2023-02-04T05:58:15.681Z,62.10
2023-02-04T06:00:45.962Z,60.80
2023-02-04T06:03:16.626Z,60.90
2023-02-04T06:05:46.932Z,61.90
2023-02-04T06:08:35.819Z,61.20
2023-02-04T06:15:14.890Z,61.30
2023-02-04T06:17:45.591Z,61.50
2023-02-04T06:20:32.627Z,61.00
2023-02-04T06:23:06.848Z,61.30
2023-02-04T06:25:37.812Z,61.80
2023-02-04T06:28:08.390Z,60.50
2023-02-04T06:30:42.600Z,61.60
2023-02-04T06:33:12.945Z,61.90
2023-02-04T06:35:43.330Z,61.90
2023-02-04T06:38:30.077Z,61.80
2023-02-04T06:41:00.529Z,61.50
2023-02-04T06:43:30.856Z,60.80
2023-02-04T06:46:01.208Z,61.20
2023-02-04T06:48:31.496Z,61.00
2023-02-04T06:51:01.817Z,61.40
2023-02-04T06:53:32.131Z,59.20
2023-02-04T06:56:02.443Z,60.70
2023-02-04T06:58:34.503Z,59.70
2023-02-04T07:01:04.803Z,59.60
2023-02-04T07:03:35.162Z,59.70
2023-02-04T07:06:05.511Z,59.30
2023-02-04T07:08:35.863Z,60.40
2023-02-04T07:11:06.178Z,59.00
2023-02-04T07:13:36.522Z,59.90
2023-02-04T07:16:07.941Z,59.10
2023-02-04T07:18:38.475Z,59.50
2023-02-04T07:21:08.961Z,59.40
2023-02-04T07:23:39.300Z,60.30
2023-02-04T07:26:09.721Z,60.80
2023-02-04T07:28:42.802Z,60.30
2023-02-04T07:31:13.753Z,61.30
2023-02-04T07:33:44.196Z,61.30
2023-02-04T07:36:15.328Z,61.30
2023-02-04T07:38:45.702Z,61.50
2023-02-04T07:41:15.954Z,61.10
2023-02-04T07:43:46.631Z,61.20
2023-02-04T07:46:16.944Z,61.30
2023-02-04T07:48:47.324Z,62.40
2023-02-04T07:51:17.681Z,61.40
2023-02-04T07:53:48.055Z,61.20
2023-02-04T07:56:18.364Z,60.60
2023-02-04T07:58:48.733Z,62.30
2023-02-04T08:01:20.166Z,62.40
2023-02-04T08:03:50.602Z,62.50
2023-02-04T08:06:21.408Z,62.40
2023-02-04T08:08:52.171Z,63.10
2023-02-04T08:11:22.519Z,62.60
2023-02-04T08:13:52.855Z,62.70
2023-02-04T08:16:23.254Z,63.90
2023-02-04T08:18:53.703Z,64.00
2023-02-04T08:21:23.969Z,65.10
2023-02-04T08:23:54.348Z,64.20
2023-02-04T08:26:24.703Z,63.90
2023-02-04T08:28:54.952Z,64.10
2023-02-04T08:31:25.553Z,64.90
2023-02-04T08:33:56.009Z,64.10
2023-02-04T08:36:26.838Z,64.70
2023-02-04T08:38:57.228Z,64.40
2023-02-04T08:41:27.533Z,65.20
2023-02-04T08:43:57.884Z,65.20
2023-02-04T08:46:28.247Z,65.30
2023-02-04T08:48:58.722Z,65.80
2023-02-04T08:51:29.063Z,66.50
2023-02-04T08:53:59.352Z,66.60
2023-02-04T08:56:30.334Z,66.00
2023-02-04T08:59:00.691Z,66.60
2023-02-04T09:01:31.020Z,66.30
2023-02-04T09:04:01.326Z,66.80
2023-02-04T09:06:31.706Z,66.50
2023-02-04T09:09:02.114Z,66.90
2023-02-04T09:11:32.360Z,67.40
2023-02-04T09:14:02.675Z,67.10
2023-02-04T09:16:33.054Z,67.30
2023-02-04T09:19:06.404Z,66.20
2023-02-04T09:21:36.793Z,66.30
2023-02-04T09:24:07.227Z,67.60
2023-02-04T09:26:37.958Z,66.60
2023-02-04T09:29:08.269Z,67.20
2023-02-04T09:31:38.668Z,67.20
2023-02-04T09:34:10.004Z,67.60
2023-02-04T09:36:40.840Z,67.00
2023-02-04T09:39:14.432Z,68.50
2023-02-04T09:41:45.563Z,67.70
2023-02-04T09:44:24.793Z,67.00
2023-02-04T09:46:58.112Z,68.20
2023-02-04T09:49:30.242Z,67.70
2023-02-04T09:52:01.202Z,67.10
2023-02-04T09:54:32.084Z,67.70
2023-02-04T09:57:02.343Z,67.50
2023-02-04T09:59:39.487Z,67.30
2023-02-04T10:02:28.029Z,68.00
2023-02-04T10:04:59.963Z,67.90
2023-02-04T10:07:31.600Z,67.40
2023-02-04T10:10:01.970Z,67.30
2023-02-04T10:12:34.038Z,67.70
2023-02-04T10:15:05.629Z,67.40
2023-02-04T10:17:36.179Z,67.50
2023-02-04T10:20:06.993Z,67.60
2023-02-04T10:22:37.916Z,67.60
2023-02-04T10:25:18.824Z,67.20
2023-02-04T10:27:55.897Z,66.90
2023-02-04T10:30:37.163Z,67.10
2023-02-04T10:33:29.397Z,67.40
2023-02-04T10:36:00.257Z,67.40
2023-02-04T10:38:30.615Z,67.70
2023-02-04T10:41:08.285Z,67.50
2023-02-04T10:43:38.557Z,67.70
2023-02-04T10:46:08.794Z,68.60
2023-02-04T10:48:45.470Z,67.50
2023-02-04T10:51:16.756Z,68.10
2023-02-04T10:54:22.200Z,67.30
2023-02-04T10:56:52.646Z,67.60
2023-02-04T10:59:28.553Z,67.80
2023-02-04T11:02:00.816Z,69.00
2023-02-04T11:04:31.226Z,68.90
2023-02-04T11:07:02.320Z,68.30
2023-02-04T11:09:32.616Z,68.90
2023-02-04T11:12:03.350Z,69.30
2023-02-04T11:14:33.890Z,69.20
2023-02-04T11:17:05.072Z,69.90
2023-02-04T11:19:39.194Z,69.60
2023-02-04T11:22:42.919Z,70.10
2023-02-04T11:25:39.834Z,69.90
2023-02-04T11:28:28.302Z,70.00
2023-02-04T11:31:03.887Z,70.40
2023-02-04T11:33:44.881Z,70.30
2023-02-04T11:36:17.080Z,70.50
2023-02-04T11:38:52.571Z,71.10
2023-02-04T11:41:32.489Z,70.10
2023-02-04T11:44:02.930Z,70.20
2023-02-04T11:46:33.869Z,70.90
2023-02-04T11:49:04.487Z,72.20
2023-02-04T11:51:37.326Z,71.30
2023-02-04T11:54:07.841Z,71.10
2023-02-04T11:56:38.094Z,70.80
2023-02-04T11:59:08.308Z,70.90
2023-02-04T12:01:38.646Z,70.80
2023-02-04T12:04:11.026Z,71.00
2023-02-04T12:06:41.344Z,70.50
2023-02-04T12:09:33.003Z,70.70
2023-02-04T12:12:05.970Z,71.30
2023-02-04T12:14:39.634Z,71.70
2023-02-04T12:17:20.314Z,71.30
2023-02-04T12:19:50.671Z,71.50
2023-02-04T12:22:21.521Z,72.20
2023-02-04T12:24:53.402Z,72.30
2023-02-04T12:27:25.030Z,72.70
2023-02-04T12:29:55.259Z,72.50
2023-02-04T12:32:25.744Z,73.50
2023-02-04T12:34:56.253Z,73.70
2023-02-04T12:37:26.974Z,73.40
2023-02-04T12:39:57.639Z,73.40
2023-02-04T12:42:28.069Z,73.50
2023-02-04T12:44:58.625Z,74.00
2023-02-04T12:47:29.229Z,74.20
2023-02-04T12:49:59.572Z,74.80
2023-02-04T12:52:29.940Z,75.80
2023-02-04T12:55:01.903Z,75.20
2023-02-04T12:57:32.255Z,75.20
2023-02-04T13:00:04.280Z,75.30
2023-02-04T13:02:34.506Z,75.60
2023-02-04T13:05:04.760Z,75.50
2023-02-04T13:07:35.231Z,75.80
2023-02-04T13:10:06.402Z,75.80
2023-02-04T13:12:36.752Z,76.30
2023-02-04T13:15:07.864Z,76.20
2023-02-04T13:17:38.256Z,76.10
2023-02-04T13:20:09.437Z,75.80
2023-02-04T13:22:39.639Z,76.40
2023-02-04T13:25:11.892Z,75.70
2023-02-04T13:27:42.562Z,75.80
2023-02-04T13:30:17.565Z,75.90
2023-02-04T13:32:47.913Z,76.30
2023-02-04T13:35:18.459Z,75.70
2023-02-04T13:37:48.862Z,75.60
2023-02-04T13:40:19.284Z,75.20
2023-02-04T13:42:49.585Z,75.70
2023-02-04T13:45:20.777Z,75.20
2023-02-04T13:47:51.052Z,75.50
2023-02-04T13:50:21.538Z,75.70
2023-02-04T13:52:52.066Z,75.20
2023-02-04T13:55:22.380Z,75.20
2023-02-04T13:57:52.572Z,75.10
2023-02-04T14:00:22.975Z,75.20
2023-02-04T14:02:53.502Z,75.10
2023-02-04T14:05:23.804Z,75.10
2023-02-04T14:07:54.129Z,75.70
2023-02-04T14:10:26.597Z,75.70
2023-02-04T14:12:57.200Z,75.50
2023-02-04T14:15:27.873Z,75.70
2023-02-04T14:17:58.349Z,75.70
2023-02-04T14:20:28.695Z,75.10
2023-02-04T14:22:59.136Z,75.40
2023-02-04T14:25:29.937Z,75.00
2023-02-04T14:28:00.810Z,76.10
2023-02-04T14:30:32.602Z,76.80
2023-02-04T14:33:03.355Z,76.40
2023-02-04T14:35:33.975Z,76.20
2023-02-04T14:38:04.494Z,76.20
2023-02-04T14:40:35.075Z,76.50
2023-02-04T14:43:05.620Z,77.20
2023-02-04T14:45:36.009Z,77.40
2023-02-04T14:48:06.831Z,77.00
2023-02-04T14:50:37.241Z,77.70
2023-02-04T14:53:07.547Z,77.00
2023-02-04T14:55:37.761Z,76.80
2023-02-04T14:58:08.295Z,77.10
2023-02-04T15:00:38.500Z,77.50
2023-02-04T15:03:08.895Z,78.70
2023-02-04T15:05:39.224Z,79.70
2023-02-04T15:08:09.966Z,80.00
2023-02-04T15:10:40.285Z,79.80
2023-02-04T15:13:10.774Z,79.30
2023-02-04T15:15:41.378Z,79.10
2023-02-04T15:18:11.813Z,79.30
2023-02-04T15:20:42.021Z,78.30
2023-02-04T15:23:14.851Z,78.70
2023-02-04T15:25:45.181Z,78.90
2023-02-04T15:28:17.933Z,79.20
2023-02-04T15:30:48.308Z,79.30
2023-02-04T15:33:18.673Z,79.10
2023-02-04T15:35:48.863Z,80.40
2023-02-04T15:38:19.370Z,79.80
2023-02-04T15:40:49.790Z,79.70
2023-02-04T15:43:20.226Z,80.00
2023-02-04T15:45:50.505Z,79.80
2023-02-04T15:48:21.893Z,80.40
2023-02-04T15:50:55.298Z,80.60
2023-02-04T15:53:25.859Z,80.80
2023-02-04T15:55:56.196Z,80.40
2023-02-04T15:58:29.179Z,80.90
2023-02-04T16:00:59.382Z,80.70
2023-02-04T16:03:29.643Z,80.50
2023-02-04T16:05:59.996Z,80.90
2023-02-04T16:08:33.482Z,80.70
2023-02-04T16:11:05.311Z,80.10
2023-02-04T16:13:37.340Z,80.90
2023-02-04T16:16:07.838Z,82.00
2023-02-04T16:18:38.276Z,81.20
2023-02-04T16:21:08.886Z,82.00
2023-02-04T16:23:39.501Z,81.80
2023-02-04T16:26:10.585Z,82.50
2023-02-04T16:28:40.917Z,81.90
2023-02-04T16:31:11.740Z,81.70
2023-02-04T16:33:42.460Z,82.10
2023-02-04T16:36:14.107Z,82.00
2023-02-04T16:38:45.383Z,82.00
2023-02-04T16:41:15.947Z,81.60
2023-02-04T16:43:46.310Z,82.10
2023-02-04T16:46:17.754Z,81.70
2023-02-04T16:48:48.301Z,82.20
2023-02-04T16:51:19.620Z,82.30
2023-02-04T16:53:50.070Z,82.70
2023-02-04T16:56:20.808Z,82.50
2023-02-04T16:58:51.332Z,82.50
2023-02-04T17:01:21.677Z,82.60
2023-02-04T17:03:52.057Z,82.60
2023-02-04T17:06:22.353Z,83.70
2023-02-04T17:08:52.716Z,83.30
2023-02-04T17:11:33.188Z,82.90
2023-02-04T17:14:12.562Z,82.70
2023-02-04T17:16:42.892Z,83.10
2023-02-04T17:19:14.090Z,82.50
2023-02-04T17:21:44.284Z,83.00
2023-02-04T17:24:15.103Z,82.80
2023-02-04T17:26:45.309Z,83.50
2023-02-04T17:29:19.079Z,82.60
2023-02-04T17:31:50.066Z,83.00
2023-02-04T17:34:20.727Z,82.90
2023-02-04T17:36:51.052Z,83.30
2023-02-04T17:39:21.309Z,83.00
2023-02-04T17:41:51.662Z,82.90
2023-02-04T17:44:26.787Z,82.70
2023-02-04T17:46:59.049Z,82.80
2023-02-04T17:49:31.166Z,82.50
2023-02-04T17:52:02.528Z,81.90
2023-02-04T17:54:32.985Z,81.60
2023-02-04T17:57:21.267Z,81.80
2023-02-04T17:59:51.944Z,82.10
2023-02-04T18:02:32.302Z,82.30
2023-02-04T18:05:10.234Z,82.10
2023-02-04T18:07:40.578Z,82.80
2023-02-04T18:10:27.810Z,83.30
2023-02-04T18:12:59.563Z,83.50
2023-02-04T18:15:34.679Z,83.40
2023-02-04T18:18:22.732Z,84.40
2023-02-04T18:21:18.970Z,83.80
2023-02-04T18:23:51.283Z,84.10
2023-02-04T18:26:27.470Z,83.60
2023-02-04T18:28:57.748Z,83.90
2023-02-04T18:31:28.136Z,84.10
2023-02-04T18:33:59.620Z,83.90
2023-02-04T18:36:29.863Z,84.20
2023-02-04T18:39:00.152Z,83.90
2023-02-04T18:41:35.575Z,83.90
2023-02-04T18:44:33.851Z,83.60
2023-02-04T18:47:26.581Z,83.10
2023-02-04T18:49:56.867Z,83.90
2023-02-04T18:52:27.272Z,82.90
2023-02-04T18:55:02.580Z,82.60
2023-02-04T18:57:42.656Z,82.80
2023-02-04T19:00:13.459Z,82.60
2023-02-04T19:02:52.211Z,82.60
2023-02-04T19:05:38.359Z,83.40
2023-02-04T19:08:08.729Z,82.50
2023-02-04T19:10:44.374Z,82.20
2023-02-04T19:13:30.828Z,82.60
2023-02-04T19:16:07.153Z,83.00
2023-02-04T19:18:44.863Z,83.20
2023-02-04T19:21:30.514Z,83.40
2023-02-04T19:24:31.490Z,82.90
2023-02-04T19:27:04.407Z,83.90
2023-02-04T19:29:44.966Z,83.80
2023-02-04T19:32:29.293Z,83.50
2023-02-04T19:35:15.077Z,83.20
2023-02-04T19:37:47.073Z,84.00
2023-02-04T19:40:37.072Z,84.60
2023-02-04T19:43:39.318Z,84.80
2023-02-04T19:46:25.938Z,84.30
2023-02-04T19:48:57.619Z,84.30
2023-02-04T19:51:32.317Z,86.10
2023-02-04T19:54:21.540Z,85.80
2023-02-04T19:56:52.270Z,86.20
2023-02-04T19:59:27.081Z,85.90
2023-02-04T20:02:08.763Z,86.70
2023-02-04T20:04:45.698Z,86.60
2023-02-04T20:07:30.443Z,85.90
2023-02-04T20:10:00.700Z,86.10
2023-02-04T20:12:34.521Z,85.80
2023-02-04T20:15:34.721Z,85.50
2023-02-04T20:18:21.729Z,85.50
2023-02-04T20:20:52.507Z,85.10
2023-02-04T20:23:31.707Z,85.10
2023-02-04T20:26:03.706Z,85.30
2023-02-04T20:28:45.545Z,85.20
2023-02-04T20:31:30.704Z,85.60
2023-02-04T20:34:02.702Z,85.10
2023-02-04T20:36:40.074Z,85.40
2023-02-04T20:39:51.135Z,85.70
2023-02-04T20:42:29.738Z,86.40
2023-02-04T20:45:26.760Z,85.90
2023-02-04T20:48:12.289Z,85.40
2023-02-04T20:50:51.070Z,85.20
2023-02-04T20:53:41.049Z,85.10
2023-02-04T20:56:26.973Z,84.60
2023-02-04T20:58:58.937Z,84.20
2023-02-04T21:01:37.257Z,84.80
2023-02-04T21:04:43.274Z,84.70
2023-02-04T21:07:22.629Z,85.40
2023-02-04T21:09:53.296Z,85.10
2023-02-04T21:12:24.120Z,84.10
2023-02-04T21:14:54.572Z,84.00
2023-02-04T21:17:24.960Z,83.80
2023-02-04T21:19:55.144Z,83.70
2023-02-04T21:22:25.556Z,84.30
2023-02-04T21:24:55.789Z,84.10
2023-02-04T21:27:26.107Z,82.90
2023-02-04T21:29:56.312Z,83.20
2023-02-04T21:32:27.666Z,83.20
2023-02-04T21:34:57.859Z,82.30
2023-02-04T21:37:28.168Z,81.80
2023-02-04T21:39:58.453Z,81.20
2023-02-04T21:42:28.871Z,80.30
2023-02-04T21:45:02.870Z,78.30
2023-02-04T21:47:33.289Z,77.50
2023-02-04T21:50:03.579Z,76.70
2023-02-04T21:52:33.870Z,76.50
2023-02-04T21:55:04.397Z,75.90
2023-02-04T21:57:35.949Z,74.50
2023-02-04T22:00:07.582Z,72.60
2023-02-04T22:02:38.016Z,71.40
2023-02-04T22:05:09.462Z,70.90
2023-02-04T22:07:41.501Z,69.30
2023-02-04T22:10:15.364Z,68.90
2023-02-04T22:12:45.810Z,67.30
2023-02-04T22:15:19.429Z,65.20
2023-02-04T22:17:50.272Z,64.40
2023-02-04T22:20:22.195Z,63.10
2023-02-04T22:22:52.950Z,61.30
2023-02-04T22:25:25.199Z,60.90
2023-02-04T22:27:55.714Z,60.40
2023-02-04T22:30:26.935Z,59.30
2023-02-04T22:32:58.319Z,57.40
2023-02-04T22:35:31.565Z,56.80
2023-02-04T22:38:02.337Z,55.60
2023-02-04T22:40:32.633Z,55.00
2023-02-04T22:43:02.966Z,53.20
2023-02-04T22:45:33.702Z,53.20
2023-02-04T22:48:04.060Z,52.40
2023-02-04T22:50:34.545Z,52.30
2023-02-04T22:53:04.739Z,51.40
2023-02-04T22:55:35.105Z,50.20
2023-02-04T22:58:05.516Z,50.20
2023-02-04T23:00:35.796Z,49.80
2023-02-04T23:03:06.463Z,49.90
2023-02-04T23:05:38.439Z,51.50
2023-02-04T23:08:09.040Z,51.00
2023-02-04T23:10:39.310Z,51.80
2023-02-04T23:13:09.871Z,51.50
2023-02-04T23:15:40.393Z,50.90
2023-02-04T23:18:10.692Z,51.80
2023-02-04T23:20:43.074Z,50.80
2023-02-04T23:23:19.238Z,51.50
2023-02-04T23:25:50.498Z,50.80
2023-02-04T23:28:20.886Z,49.40
2023-02-04T23:30:51.239Z,50.80
2023-02-04T23:33:21.505Z,51.50
2023-02-04T23:35:52.182Z,52.00
2023-02-04T23:38:32.867Z,51.50
2023-02-04T23:41:03.252Z,47.60
2023-02-04T23:43:33.535Z,49.30
2023-02-04T23:46:04.040Z,50.50
2023-02-04T23:48:34.470Z,50.30
2023-02-04T23:51:04.750Z,51.20
2023-02-04T23:53:35.141Z,50.80
2023-02-04T23:56:05.444Z,50.00
2023-02-04T23:58:35.719Z,50.40
